createdAt,value
2018-10-18T11:02:08.825Z,10.20
2018-10-18T11:03:08.806Z,11.80
2018-10-18T11:04:08.782Z,11.60
2018-10-18T11:05:08.724Z,12.90
2018-10-18T11:06:08.717Z,12.20
2018-10-18T11:07:08.635Z,12.40
2018-10-18T11:08:08.624Z,13.00
2018-10-18T11:09:08.667Z,12.70
2018-10-18T11:10:08.467Z,12.60
2018-10-18T11:11:08.410Z,12.20
2018-10-18T11:12:08.506Z,12.00
2018-10-18T11:13:08.286Z,12.40
2018-10-18T11:14:08.326Z,12.30
2018-10-18T11:15:08.231Z,12.60
2018-10-18T11:16:08.094Z,12.40
2018-10-18T11:17:08.074Z,12.50
2018-10-18T11:18:08.024Z,12.30
2018-10-18T11:19:07.907Z,12.40
2018-10-18T11:20:07.881Z,12.70
2018-10-18T11:21:07.761Z,12.30
2018-10-18T11:22:07.680Z,12.60
2018-10-18T11:23:07.609Z,11.30
2018-10-18T11:24:07.655Z,12.10
2018-10-18T11:25:07.477Z,11.80
2018-10-18T11:26:07.453Z,11.60
2018-10-18T11:27:07.360Z,12.10
2018-10-18T11:28:07.271Z,11.80
2018-10-18T11:29:07.228Z,11.70
2018-10-18T11:30:07.203Z,11.70
2018-10-18T11:31:07.063Z,12.90
2018-10-18T11:32:07.101Z,15.10
2018-10-18T11:33:06.983Z,16.40
2018-10-18T11:34:06.875Z,16.20
2018-10-18T11:35:06.777Z,16.90
2018-10-18T11:36:06.791Z,17.70
2018-10-18T11:37:06.627Z,18.30
2018-10-18T11:38:06.614Z,18.60
2018-10-18T11:39:06.507Z,15.80
2018-10-18T11:40:06.439Z,16.70
2018-10-18T11:41:06.342Z,15.90
2018-10-18T11:42:06.351Z,17.30
2018-10-18T11:43:06.203Z,17.10
2018-10-18T11:44:06.221Z,18.10
2018-10-18T11:45:06.059Z,18.80
2018-10-18T11:46:05.986Z,20.60
2018-10-18T11:47:05.910Z,20.80
2018-10-18T11:48:05.903Z,20.10
2018-10-18T11:49:05.796Z,19.40
2018-10-18T11:50:05.707Z,19.40
2018-10-18T11:51:05.606Z,19.70
2018-10-18T11:52:05.637Z,20.80
2018-10-18T11:53:05.450Z,20.40
2018-10-18T11:54:05.465Z,20.40
2018-10-18T11:55:05.292Z,20.00
2018-10-18T11:56:05.221Z,20.50
2018-10-18T11:57:05.131Z,20.40
2018-10-18T11:58:05.056Z,21.00
2018-10-18T11:59:05.052Z,20.70
2018-10-18T12:00:04.909Z,21.30
2018-10-18T12:01:04.879Z,22.30
2018-10-18T12:02:04.759Z,23.10
2018-10-18T12:03:04.679Z,21.60
2018-10-18T12:04:04.629Z,21.40
2018-10-18T12:05:04.607Z,21.10
2018-10-18T12:06:04.453Z,21.00
2018-10-18T12:07:04.380Z,21.60
2018-10-18T12:08:04.339Z,21.20
2018-10-18T12:09:04.270Z,21.50
2018-10-18T12:10:04.177Z,23.00
2018-10-18T12:11:04.150Z,21.90
2018-10-18T12:12:04.119Z,23.50
2018-10-18T12:13:03.956Z,22.60
2018-10-18T12:14:03.955Z,22.80
2018-10-18T12:15:03.814Z,22.40
2018-10-18T12:16:03.745Z,22.60
2018-10-18T12:17:03.731Z,22.90
2018-10-18T12:18:03.600Z,22.40
2018-10-18T12:19:03.618Z,22.10
2018-10-18T12:20:03.492Z,21.50
2018-10-18T12:21:03.375Z,22.00
2018-10-18T12:22:03.304Z,21.60
2018-10-18T12:23:03.280Z,22.40
2018-10-18T12:24:03.156Z,22.10
2018-10-18T12:25:03.104Z,21.10
2018-10-18T12:26:03.053Z,19.90
2018-10-18T12:27:02.990Z,20.30
2018-10-18T12:28:02.844Z,20.50
2018-10-18T12:29:02.807Z,20.20
2018-10-18T12:30:02.710Z,20.60
2018-10-18T12:31:02.604Z,19.70
2018-10-18T12:32:02.532Z,20.10
2018-10-18T12:33:02.450Z,20.00
2018-10-18T12:34:02.370Z,20.00
2018-10-18T12:35:02.351Z,18.80
2018-10-18T12:36:02.211Z,19.80
2018-10-18T12:37:02.135Z,17.80
2018-10-18T12:38:02.075Z,16.40
2018-10-18T12:39:01.983Z,14.50
2018-10-18T12:40:01.923Z,18.50
2018-10-18T12:41:01.957Z,17.50
2018-10-18T12:42:01.801Z,18.00
2018-10-18T12:43:01.671Z,16.90
2018-10-18T12:44:01.663Z,18.30
2018-10-18T12:45:01.527Z,15.20
2018-10-18T12:46:01.427Z,16.10
2018-10-18T12:47:01.352Z,15.90
2018-10-18T12:48:01.320Z,16.70
2018-10-18T12:49:01.234Z,17.10
2018-10-18T12:50:01.252Z,16.90
2018-10-18T12:51:01.055Z,19.20
2018-10-18T12:52:00.982Z,18.10
2018-10-18T12:53:00.907Z,16.60
2018-10-18T12:54:00.885Z,18.40
2018-10-18T12:55:00.775Z,19.00
2018-10-18T12:56:00.711Z,17.70
2018-10-18T12:57:00.594Z,19.40
2018-10-18T12:58:00.514Z,17.00
2018-10-18T12:59:00.441Z,17.50
2018-10-18T13:00:00.477Z,19.50
2018-10-18T13:01:00.291Z,19.10
2018-10-18T13:02:00.372Z,18.30
2018-10-18T13:03:00.130Z,17.30
2018-10-18T13:04:00.053Z,15.00
2018-10-18T13:04:59.995Z,16.60
2018-10-18T13:05:59.897Z,14.20
2018-10-18T13:06:59.811Z,15.10
2018-10-18T13:07:59.793Z,16.20
2018-10-18T13:08:59.655Z,16.50
2018-10-18T13:09:59.602Z,18.10
2018-10-18T13:10:59.498Z,17.30
2018-10-18T13:11:59.494Z,16.10
2018-10-18T13:12:59.341Z,17.90
2018-10-18T13:13:59.286Z,18.50
2018-10-18T13:14:59.237Z,16.40
2018-10-18T13:15:59.110Z,18.50
2018-10-18T13:16:59.038Z,17.80
2018-10-18T13:17:59.003Z,19.00
2018-10-18T13:18:58.877Z,18.60
2018-10-18T13:19:58.864Z,17.60
2018-10-18T13:20:58.720Z,16.30
2018-10-18T13:21:58.643Z,18.20
2018-10-18T13:22:58.561Z,18.00
2018-10-18T13:23:58.487Z,16.60
2018-10-18T13:24:58.427Z,18.20
2018-10-18T13:25:58.364Z,17.10
2018-10-18T13:26:58.238Z,18.70
2018-10-18T13:27:58.161Z,19.50
2018-10-18T13:28:58.082Z,18.10
2018-10-18T13:29:58.076Z,18.90
2018-10-18T13:30:57.934Z,20.40
2018-10-18T13:31:57.898Z,19.30
2018-10-18T13:32:57.781Z,19.70
2018-10-18T13:33:57.724Z,19.80
2018-10-18T13:34:57.635Z,18.50
2018-10-18T13:35:57.536Z,18.70
2018-10-18T13:36:57.453Z,16.70
2018-10-18T13:37:57.400Z,16.30
2018-10-18T13:38:57.315Z,15.10
2018-10-18T13:39:57.243Z,18.50
2018-10-18T13:40:57.152Z,20.50
2018-10-18T13:41:57.090Z,16.60
2018-10-18T13:42:56.985Z,17.00
2018-10-18T13:43:56.928Z,21.50
2018-10-18T13:44:56.867Z,19.80
2018-10-18T13:45:56.766Z,16.90
2018-10-18T13:46:56.671Z,19.60
2018-10-18T13:47:56.614Z,17.20
2018-10-18T13:48:56.519Z,16.90
2018-10-18T13:49:56.511Z,18.60
2018-10-18T13:50:56.359Z,17.60
2018-10-18T13:51:56.278Z,17.70
2018-10-18T13:52:56.197Z,18.00
2018-10-18T13:53:56.130Z,16.50
2018-10-18T13:54:56.044Z,16.30
2018-10-18T13:55:55.990Z,19.60
2018-10-18T13:56:55.885Z,19.50
2018-10-18T13:57:55.814Z,20.50
2018-10-18T13:58:55.777Z,18.90
2018-10-18T13:59:55.745Z,19.80
2018-10-18T14:00:55.591Z,20.10
2018-10-18T14:01:55.510Z,21.70
2018-10-18T14:02:55.402Z,18.70
2018-10-18T14:03:55.332Z,18.00
2018-10-18T14:04:55.343Z,19.80
2018-10-18T14:05:55.196Z,21.00
2018-10-18T14:06:55.149Z,20.10
2018-10-18T14:07:55.058Z,19.30
2018-10-18T14:08:54.931Z,21.20
2018-10-18T14:09:54.837Z,18.60
2018-10-18T14:10:54.802Z,17.40
2018-10-18T14:11:54.677Z,18.60
2018-10-18T14:12:54.595Z,17.40
2018-10-18T14:13:54.519Z,16.60
2018-10-18T14:14:54.436Z,16.40
2018-10-18T14:15:54.381Z,16.10
2018-10-18T14:16:54.276Z,15.90
2018-10-18T14:17:54.283Z,16.00
2018-10-18T14:18:54.110Z,17.00
2018-10-18T14:19:54.068Z,16.60
2018-10-18T14:20:53.973Z,16.20
2018-10-18T14:21:53.886Z,14.90
2018-10-18T14:22:53.845Z,14.40
2018-10-18T14:23:53.696Z,15.10
2018-10-18T14:24:53.613Z,14.30
2018-10-18T14:25:53.558Z,14.40
2018-10-18T14:26:53.480Z,15.20
2018-10-18T14:27:53.351Z,15.50
2018-10-18T14:28:53.281Z,16.60
2018-10-18T14:29:53.180Z,17.70
2018-10-18T14:30:53.199Z,17.40
2018-10-18T14:31:53.030Z,15.70
2018-10-18T14:32:52.922Z,15.80
2018-10-18T14:33:52.835Z,15.50
2018-10-18T14:34:52.753Z,15.00
2018-10-18T14:35:52.698Z,15.90
2018-10-18T14:36:52.577Z,16.60
2018-10-18T14:37:52.532Z,17.00
2018-10-18T14:38:52.443Z,16.30
2018-10-18T14:39:52.312Z,15.30
2018-10-18T14:40:52.286Z,15.20
2018-10-18T14:41:52.142Z,16.60
2018-10-18T14:42:52.060Z,17.50
2018-10-18T14:43:52.003Z,17.20
2018-10-18T14:44:51.977Z,17.50
2018-10-18T14:45:51.821Z,16.50
2018-10-18T14:46:51.712Z,16.10
2018-10-18T14:47:51.672Z,16.70
2018-10-18T14:48:51.538Z,16.40
2018-10-18T14:49:51.475Z,16.80
2018-10-18T14:50:51.391Z,17.60
2018-10-18T14:51:51.274Z,16.90
2018-10-18T14:52:51.195Z,17.30
2018-10-18T14:53:51.112Z,17.70
2018-10-18T14:54:51.029Z,17.30
2018-10-18T14:55:50.978Z,17.50
2018-10-18T14:56:50.872Z,16.10
2018-10-18T14:57:50.796Z,17.70
2018-10-18T14:58:50.713Z,17.40
2018-10-18T14:59:50.630Z,17.70
2018-10-18T15:00:50.575Z,16.20
2018-10-18T15:01:50.465Z,15.60
2018-10-18T15:02:50.382Z,15.50
2018-10-18T15:03:50.298Z,15.70
2018-10-18T15:04:50.215Z,16.30
2018-10-18T15:05:50.159Z,16.40
2018-10-18T15:06:50.056Z,15.70
2018-10-18T15:07:49.974Z,17.10
2018-10-18T15:08:49.888Z,16.60
2018-10-18T15:09:49.804Z,16.60
2018-10-18T15:10:49.751Z,17.40
2018-10-18T15:11:49.641Z,17.80
2018-10-18T15:12:49.609Z,16.50
2018-10-18T15:13:49.453Z,16.90
2018-10-18T15:14:49.369Z,17.20
2018-10-18T15:15:49.299Z,15.80
2018-10-18T15:16:49.180Z,16.10
2018-10-18T15:17:49.090Z,16.30
2018-10-18T15:18:49.005Z,16.30
2018-10-18T15:19:48.930Z,15.90
2018-10-18T15:20:48.875Z,16.50
2018-10-18T15:21:48.828Z,16.20
2018-10-18T15:22:48.649Z,15.60
2018-10-18T15:23:48.556Z,15.90
2018-10-18T15:24:48.467Z,15.30
2018-10-18T15:25:48.568Z,15.80
2018-10-18T15:26:48.336Z,15.20
2018-10-18T15:27:48.428Z,14.70
2018-10-18T15:28:48.114Z,14.80
2018-10-18T15:29:48.032Z,14.50
2018-10-18T15:30:47.950Z,15.50
2018-10-18T15:31:47.941Z,14.40
2018-10-18T15:32:47.785Z,13.90
2018-10-18T15:33:47.703Z,14.70
2018-10-18T15:34:47.615Z,14.10
2018-10-18T15:35:47.536Z,13.60
2018-10-18T15:36:47.474Z,13.40
2018-10-18T15:37:47.372Z,12.80
2018-10-18T15:38:47.414Z,12.70
2018-10-18T15:39:47.194Z,12.80
2018-10-18T15:40:47.103Z,13.00
2018-10-18T15:41:47.049Z,12.70
2018-10-18T15:42:46.935Z,12.30
2018-10-18T15:43:46.850Z,12.00
2018-10-18T15:44:46.770Z,11.90
2018-10-18T15:45:46.689Z,11.90
2018-10-18T15:46:46.642Z,12.60
2018-10-18T15:47:46.747Z,11.40
2018-10-18T15:48:46.434Z,11.30
2018-10-18T15:49:46.347Z,11.20
2018-10-18T15:50:46.262Z,11.00
2018-10-18T15:51:46.204Z,11.60
2018-10-18T15:52:46.095Z,12.00
2018-10-18T15:53:46.008Z,11.30
2018-10-18T15:54:45.922Z,11.30
2018-10-18T15:55:45.832Z,11.10
2018-10-18T15:56:45.781Z,11.00
2018-10-18T15:57:45.666Z,10.80
2018-10-18T15:58:45.593Z,11.00
2018-10-18T15:59:45.505Z,10.60
2018-10-18T16:00:45.414Z,10.50
2018-10-18T16:01:45.360Z,10.40
2018-10-18T16:02:45.242Z,10.40
2018-10-18T16:03:45.164Z,9.80
2018-10-18T16:04:45.063Z,10.50
2018-10-18T16:05:44.979Z,10.20
2018-10-18T16:06:44.917Z,9.70
2018-10-18T16:07:44.804Z,9.90
2018-10-18T16:08:44.776Z,10.00
2018-10-18T16:09:45.476Z,9.70
2018-10-18T16:10:44.572Z,9.30
2018-10-18T16:11:44.497Z,9.40
2018-10-18T16:12:44.374Z,10.00
2018-10-18T16:13:44.286Z,9.00
2018-10-18T16:14:44.192Z,9.60
2018-10-18T16:15:44.108Z,9.80
2018-10-18T16:16:44.049Z,9.40
2018-10-18T16:17:43.998Z,9.50
2018-10-18T16:18:43.841Z,8.90
2018-10-18T16:19:43.758Z,9.00
2018-10-18T16:20:43.663Z,9.10
2018-10-18T16:21:43.603Z,9.00
2018-10-18T16:22:43.489Z,9.00
2018-10-18T16:23:43.397Z,9.20
2018-10-18T16:24:43.302Z,9.00
2018-10-18T16:25:43.243Z,8.40
2018-10-18T16:26:43.139Z,9.20
2018-10-18T16:27:43.024Z,8.30
2018-10-18T16:28:42.937Z,8.00
2018-10-18T16:29:42.850Z,8.40
2018-10-18T16:30:42.764Z,8.20
2018-10-18T16:31:42.704Z,8.20
2018-10-18T16:32:42.590Z,8.20
2018-10-18T16:33:42.569Z,8.90
2018-10-18T16:34:42.412Z,8.60
2018-10-18T16:35:42.328Z,8.00
2018-10-18T16:36:42.260Z,8.20
2018-10-18T16:37:42.151Z,8.20
2018-10-18T16:38:42.066Z,7.50
2018-10-18T16:39:41.981Z,7.50
2018-10-18T16:40:41.944Z,7.80
2018-10-18T16:41:41.895Z,7.90
2018-10-18T16:42:41.717Z,7.80
2018-10-18T16:43:41.627Z,7.40
2018-10-18T16:44:41.551Z,7.80
2018-10-18T16:45:41.453Z,7.20
2018-10-18T16:46:41.387Z,6.90
2018-10-18T16:47:41.348Z,7.20
2018-10-18T16:48:41.194Z,7.20
2018-10-18T16:49:41.113Z,7.90
2018-10-18T16:50:41.036Z,7.40
2018-10-18T16:51:40.993Z,6.80
2018-10-18T16:52:40.881Z,7.50
2018-10-18T16:53:40.843Z,7.40
2018-10-18T16:54:40.743Z,7.20
2018-10-18T16:55:40.627Z,7.00
2018-10-18T16:56:40.538Z,7.20
2018-10-18T16:57:40.478Z,7.00
2018-10-18T16:58:40.368Z,6.90
2018-10-18T16:59:40.284Z,7.00
2018-10-18T17:00:40.191Z,7.20
2018-10-18T17:01:40.111Z,7.00
2018-10-18T17:02:40.047Z,6.50
2018-10-18T17:03:39.938Z,6.70
2018-10-18T17:04:39.929Z,6.60
2018-10-18T17:05:39.764Z,6.50
2018-10-18T17:06:39.680Z,6.40
2018-10-18T17:07:39.616Z,6.20
2018-10-18T17:08:39.502Z,6.70
2018-10-18T17:09:39.416Z,6.40
2018-10-18T17:10:39.330Z,6.00
2018-10-18T17:11:39.370Z,6.10
2018-10-18T17:12:39.197Z,6.50
2018-10-18T17:13:39.078Z,5.90
2018-10-18T17:14:38.987Z,6.30
2018-10-18T17:15:38.901Z,6.40
2018-10-18T17:16:38.812Z,6.20
2018-10-18T17:17:38.753Z,6.00
2018-10-18T17:18:38.635Z,6.10
2018-10-18T17:19:38.543Z,5.90
2018-10-18T17:20:38.566Z,6.00
2018-10-18T17:21:38.380Z,5.90
2018-10-18T17:22:38.320Z,5.50
2018-10-18T17:23:38.221Z,5.80
2018-10-18T17:24:38.131Z,6.40
2018-10-18T17:25:38.044Z,5.90
2018-10-18T17:26:38.080Z,5.90
2018-10-18T17:27:38.003Z,6.00
2018-10-18T17:28:37.801Z,5.90
2018-10-18T17:29:37.710Z,5.80
2018-10-18T17:30:37.625Z,5.50
2018-10-18T17:31:37.545Z,5.70
2018-10-18T17:32:37.551Z,5.90
2018-10-18T17:33:37.378Z,5.30
2018-10-18T17:34:37.298Z,5.40
2018-10-18T17:35:37.210Z,5.50
2018-10-18T17:36:37.127Z,5.20
2018-10-18T17:37:37.067Z,5.50
2018-10-18T17:38:36.958Z,5.50
2018-10-18T17:39:36.871Z,5.20
2018-10-18T17:40:36.897Z,5.20
2018-10-18T17:41:36.702Z,5.50
2018-10-18T17:42:36.646Z,5.20
2018-10-18T17:43:36.537Z,5.60
2018-10-18T17:44:36.453Z,5.40
2018-10-18T17:45:36.373Z,5.30
2018-10-18T17:46:36.288Z,5.90
2018-10-18T17:47:36.230Z,5.50
2018-10-18T17:48:36.118Z,5.30
2018-10-18T17:49:36.031Z,5.50
2018-10-18T17:50:35.965Z,5.40
2018-10-18T17:51:35.860Z,5.40
2018-10-18T17:52:35.813Z,5.20
2018-10-18T17:53:35.696Z,5.30
2018-10-18T17:54:35.616Z,5.10
2018-10-18T17:55:35.528Z,5.40
2018-10-18T17:56:35.446Z,5.20
2018-10-18T17:57:35.391Z,5.00
2018-10-18T17:58:35.280Z,5.10
2018-10-18T17:59:35.230Z,4.90
2018-10-18T18:00:35.192Z,5.10
2018-10-18T18:01:35.038Z,4.90
2018-10-18T18:02:34.977Z,4.80
2018-10-18T18:03:34.858Z,4.90
2018-10-18T18:04:34.777Z,4.80
2018-10-18T18:05:34.692Z,4.90
2018-10-18T18:06:34.699Z,4.80
2018-10-18T18:07:34.580Z,5.00
2018-10-18T18:08:34.446Z,4.70
2018-10-18T18:09:34.362Z,5.10
2018-10-18T18:10:34.285Z,4.70
2018-10-18T18:11:34.215Z,4.80
2018-10-18T18:12:34.147Z,4.70
2018-10-18T18:13:34.024Z,4.80
2018-10-18T18:14:33.945Z,4.80
2018-10-18T18:15:33.886Z,4.50
2018-10-18T18:16:33.780Z,4.70
2018-10-18T18:17:33.719Z,4.80
2018-10-18T18:18:33.598Z,5.40
2018-10-18T18:19:33.514Z,5.30
2018-10-18T18:20:33.426Z,5.60
2018-10-18T18:21:33.337Z,5.30
2018-10-18T18:22:33.293Z,6.00
2018-10-18T18:23:33.162Z,6.50
2018-10-18T18:24:33.080Z,6.20
2018-10-18T18:25:32.991Z,5.60
2018-10-18T18:26:45.045Z,5.90
2018-10-18T18:27:32.814Z,5.60
2018-10-18T18:28:32.749Z,5.80
2018-10-18T18:29:32.634Z,5.60
2018-10-18T18:30:32.545Z,5.50
2018-10-18T18:31:32.455Z,5.50
2018-10-18T18:32:32.368Z,5.40
2018-10-18T18:33:32.305Z,5.30
2018-10-18T18:34:32.200Z,5.20
2018-10-18T18:35:32.113Z,5.30
2018-10-18T18:36:32.023Z,5.20
2018-10-18T18:37:31.940Z,5.30
2018-10-18T18:38:31.879Z,5.00
2018-10-18T18:39:31.763Z,5.50
2018-10-18T18:40:31.681Z,5.30
2018-10-18T18:41:31.594Z,4.80
2018-10-18T18:42:31.510Z,5.10
2018-10-18T18:43:31.450Z,5.10
2018-10-18T18:44:31.343Z,5.20
2018-10-18T18:45:31.315Z,4.80
2018-10-18T18:46:31.168Z,5.00
2018-10-18T18:47:31.150Z,5.00
2018-10-18T18:48:31.023Z,4.80
2018-10-18T18:49:30.913Z,4.90
2018-10-18T18:50:30.830Z,5.20
2018-10-18T18:51:30.796Z,4.90
2018-10-18T18:52:30.656Z,4.70
2018-10-18T18:53:30.625Z,4.90
2018-10-18T18:54:30.488Z,4.80
2018-10-18T18:55:30.405Z,5.10
2018-10-18T18:56:30.327Z,4.80
2018-10-18T18:57:30.231Z,5.00
2018-10-18T18:58:30.173Z,5.10
2018-10-18T18:59:30.062Z,5.20
2018-10-18T19:00:29.976Z,5.00
2018-10-18T19:01:29.886Z,4.80
2018-10-18T19:02:29.801Z,4.80
2018-10-18T19:03:29.737Z,5.10
2018-10-18T19:04:29.617Z,4.70
2018-10-18T19:05:29.535Z,4.60
2018-10-18T19:06:29.441Z,4.40
2018-10-18T19:07:29.357Z,4.70
2018-10-18T19:08:29.290Z,4.50
2018-10-18T19:09:29.177Z,5.00
2018-10-18T19:10:29.084Z,4.80
2018-10-18T19:11:28.997Z,4.90
2018-10-18T19:12:28.907Z,4.20
2018-10-18T19:13:28.949Z,4.50
2018-10-18T19:14:28.735Z,4.50
2018-10-18T19:15:28.650Z,4.50
2018-10-18T19:16:28.569Z,4.50
2018-10-18T19:17:28.472Z,4.30
2018-10-18T19:18:28.409Z,4.40
2018-10-18T19:19:28.298Z,4.20
2018-10-18T19:20:28.210Z,4.40
2018-10-18T19:21:28.119Z,4.50
2018-10-18T19:22:28.080Z,4.40
2018-10-18T19:23:27.971Z,4.30
2018-10-18T19:24:27.862Z,4.40
2018-10-18T19:25:27.774Z,4.10
2018-10-18T19:26:27.719Z,4.50
2018-10-18T19:27:27.609Z,4.40
2018-10-18T19:28:27.566Z,4.50
2018-10-18T19:29:27.443Z,4.20
2018-10-18T19:30:27.354Z,4.20
2018-10-18T19:31:27.264Z,4.10
2018-10-18T19:32:27.177Z,4.50
2018-10-18T19:33:27.124Z,4.20
2018-10-18T19:34:27.007Z,3.90
2018-10-18T19:35:26.905Z,4.20
2018-10-18T19:36:26.817Z,4.60
2018-10-18T19:37:26.730Z,4.20
2018-10-18T19:38:26.746Z,4.30
2018-10-18T19:39:26.563Z,4.40
2018-10-18T19:40:26.472Z,3.90
2018-10-18T19:41:26.384Z,4.00
2018-10-18T19:42:26.295Z,4.00
2018-10-18T19:43:26.232Z,4.20
2018-10-18T19:44:26.116Z,4.30
2018-10-18T19:45:26.083Z,4.20
2018-10-18T19:46:25.985Z,4.40
2018-10-18T19:47:25.860Z,4.60
2018-10-18T19:48:25.800Z,4.10
2018-10-18T19:49:25.690Z,4.50
2018-10-18T19:50:25.599Z,4.20
2018-10-18T19:51:25.515Z,3.90
2018-10-18T19:52:25.593Z,3.90
2018-10-18T19:53:25.383Z,4.30
2018-10-18T19:54:25.261Z,4.00
2018-10-18T19:55:25.174Z,4.20
2018-10-18T19:56:25.093Z,3.80
2018-10-18T19:57:25.001Z,4.30
2018-10-18T19:58:24.956Z,4.20
2018-10-18T19:59:24.857Z,4.00
2018-10-18T20:00:24.737Z,4.00
2018-10-18T20:01:24.643Z,4.30
2018-10-18T20:02:24.555Z,4.10
2018-10-18T20:03:24.470Z,3.90
2018-10-18T20:04:24.415Z,3.90
2018-10-18T20:05:24.298Z,4.30
2018-10-18T20:06:24.205Z,3.90
2018-10-18T20:07:24.121Z,3.70
2018-10-18T20:08:24.030Z,3.90
2018-10-18T20:09:23.982Z,3.90
